Time;durP1;ratioP1;P1;durP2;ratioP2;P2;SDS_P1;SDS_P2;PMS_P1;PMS_P2;Temp;Humidity;BMP_temperature;BMP_pressure;BME280_temperature;BME280_humidity;BME280_pressure;Samples;Min_cycle;Max_cycle;Signal;HPM_P1;HPM_P2
2023/08/10 00:02:11;;;;;;;3.38;1.35;;;;;;;;;;5052539;28;20031;-73
2023/08/10 00:04:37;;;;;;;3.72;1.40;;;;;;;;;;5052472;28;20554;-73
2023/08/10 00:07:03;;;;;;;5.35;1.35;;;;;;;;;;5052428;28;20053;-73
2023/08/10 00:09:29;;;;;;;3.63;1.17;;;;;;;;;;5052246;28;20036;-73
2023/08/10 00:11:55;;;;;;;3.35;1.13;;;;;;;;;;5052410;28;20032;-73
2023/08/10 00:14:21;;;;;;;3.45;1.23;;;;;;;;;;5052583;28;20025;-73
2023/08/10 00:16:47;;;;;;;2.05;1.30;;;;;;;;;;5052210;28;20112;-73
2023/08/10 00:19:13;;;;;;;4.80;1.42;;;;;;;;;;5052214;28;20092;-73
2023/08/10 00:21:39;;;;;;;1.92;1.50;;;;;;;;;;5052169;28;20037;-73
2023/08/10 00:24:06;;;;;;;4.07;1.40;;;;;;;;;;5052446;28;20056;-73
2023/08/10 00:26:32;;;;;;;2.00;1.13;;;;;;;;;;5052372;28;20464;-73
2023/08/10 00:28:59;;;;;;;4.75;1.40;;;;;;;;;;5052317;28;20017;-73
2023/08/10 00:31:25;;;;;;;4.35;1.45;;;;;;;;;;5052140;28;20021;-73
2023/08/10 00:33:51;;;;;;;2.38;1.35;;;;;;;;;;5052374;28;20026;-73
2023/08/10 00:36:17;;;;;;;3.58;1.70;;;;;;;;;;5052173;28;20044;-73
2023/08/10 00:38:43;;;;;;;4.03;1.55;;;;;;;;;;5052035;28;20056;-73
2023/08/10 00:41:09;;;;;;;5.68;1.73;;;;;;;;;;5054880;28;20035;-73
2023/08/10 00:43:35;;;;;;;7.03;1.67;;;;;;;;;;5056094;28;20434;-73
2023/08/10 00:46:02;;;;;;;3.75;1.40;;;;;;;;;;5056126;28;20048;-73
2023/08/10 00:48:28;;;;;;;4.07;1.75;;;;;;;;;;5056020;28;20036;-73
2023/08/10 00:50:54;;;;;;;3.63;1.83;;;;;;;;;;5055943;28;20032;-73
2023/08/10 00:53:20;;;;;;;4.20;1.70;;;;;;;;;;5055972;28;20040;-73
2023/08/10 00:55:51;;;;;;;5.10;2.22;;;;;;;;;;5055954;28;20117;-73
2023/08/10 00:58:19;;;;;;;5.47;1.70;;;;;;;;;;5056289;28;20452;-73
2023/08/10 01:00:45;;;;;;;6.07;2.13;;;;;;;;;;5056051;28;20033;-73
2023/08/10 01:03:11;;;;;;;4.25;1.85;;;;;;;;;;5055777;28;20021;-73
2023/08/10 01:05:40;;;;;;;3.08;1.90;;;;;;;;;;5055996;28;20025;-73
2023/08/10 01:08:22;;;;;;;3.67;2.00;;;;;;;;;;5056005;28;20021;-73
2023/08/10 01:10:53;;;;;;;5.45;1.80;;;;;;;;;;5055970;28;20028;-73
2023/08/10 01:13:49;;;;;;;5.75;2.47;;;;;;;;;;5055685;28;20036;-73
2023/08/10 01:16:15;;;;;;;3.60;2.20;;;;;;;;;;5050829;28;20106;-73
2023/08/10 01:18:41;;;;;;;6.13;2.20;;;;;;;;;;5055515;28;20038;-73
2023/08/10 01:21:26;;;;;;;4.85;2.60;;;;;;;;;;5055360;28;20483;-73
2023/08/10 01:23:55;;;;;;;6.90;2.40;;;;;;;;;;5055420;28;20034;-73
2023/08/10 01:26:22;;;;;;;6.88;2.40;;;;;;;;;;5054099;28;20368;-73
2023/08/10 01:28:48;;;;;;;2.80;1.90;;;;;;;;;;5055240;28;20521;-73
2023/08/10 01:31:15;;;;;;;6.72;2.22;;;;;;;;;;5054970;28;20029;-73
2023/08/10 01:33:41;;;;;;;6.55;2.05;;;;;;;;;;5055538;28;20024;-73
2023/08/10 01:36:07;;;;;;;3.97;1.90;;;;;;;;;;5055090;28;20024;-73
2023/08/10 01:38:40;;;;;;;4.75;2.30;;;;;;;;;;5055225;28;20028;-73
2023/08/10 01:41:06;;;;;;;4.18;1.80;;;;;;;;;;5055035;28;20025;-73
2023/08/10 01:43:33;;;;;;;5.20;2.05;;;;;;;;;;5055059;28;20108;-73
2023/08/10 01:46:00;;;;;;;4.03;2.47;;;;;;;;;;5055290;28;20025;-73
2023/08/10 01:48:30;;;;;;;3.33;2.05;;;;;;;;;;5041415;28;20017;-73
2023/08/10 01:50:57;;;;;;;5.32;2.17;;;;;;;;;;5054786;28;20408;-73
2023/08/10 01:53:33;;;;;;;4.00;2.13;;;;;;;;;;5054254;28;20021;-73
2023/08/10 01:56:00;;;;;;;5.90;2.50;;;;;;;;;;5054808;28;20025;-73
2023/08/10 01:58:26;;;;;;;4.60;2.72;;;;;;;;;;5054720;28;20096;-73
2023/08/10 02:00:52;;;;;;;7.00;3.38;;;;;;;;;;5054553;28;20033;-73
2023/08/10 02:03:19;;;;;;;4.18;2.28;;;;;;;;;;5054625;28;20530;-73
2023/08/10 02:05:45;;;;;;;4.50;2.55;;;;;;;;;;5054691;28;20025;-73
2023/08/10 02:08:11;;;;;;;5.85;2.10;;;;;;;;;;5053231;28;20040;-73
2023/08/10 02:10:37;;;;;;;5.50;2.33;;;;;;;;;;5054606;28;20387;-73
2023/08/10 02:13:03;;;;;;;5.25;2.55;;;;;;;;;;5054449;28;20029;-73
2023/08/10 02:15:29;;;;;;;5.55;2.50;;;;;;;;;;5054446;28;20380;-73
2023/08/10 02:17:55;;;;;;;5.65;2.42;;;;;;;;;;5054370;28;20452;-73
2023/08/10 02:20:21;;;;;;;5.45;2.72;;;;;;;;;;5054500;28;20414;-73
2023/08/10 02:22:54;;;;;;;3.10;2.35;;;;;;;;;;5054367;28;20257;-73
2023/08/10 02:25:22;;;;;;;8.85;2.85;;;;;;;;;;5053318;28;20053;-73
2023/08/10 02:27:50;;;;;;;4.85;2.50;;;;;;;;;;5053992;28;20070;-73
2023/08/10 02:30:16;;;;;;;10.00;2.88;;;;;;;;;;5054401;28;20040;-73
2023/08/10 02:32:42;;;;;;;7.15;2.67;;;;;;;;;;5054187;28;20025;-73
2023/08/10 02:35:09;;;;;;;5.30;2.42;;;;;;;;;;5054380;28;20087;-74
2023/08/10 02:37:35;;;;;;;5.00;2.72;;;;;;;;;;5052403;28;20082;-73
2023/08/10 02:40:03;;;;;;;6.60;2.80;;;;;;;;;;5042483;28;20032;-73
2023/08/10 02:42:29;;;;;;;2.63;2.25;;;;;;;;;;5054186;28;20462;-73
2023/08/10 02:44:56;;;;;;;6.38;2.50;;;;;;;;;;5053823;28;20053;-73
2023/08/10 02:47:22;;;;;;;5.20;2.70;;;;;;;;;;5054168;28;20025;-73
2023/08/10 02:49:48;;;;;;;4.10;2.45;;;;;;;;;;5053848;28;20468;-73
2023/08/10 02:52:14;;;;;;;4.35;2.22;;;;;;;;;;5053592;28;20036;-73
2023/08/10 02:54:40;;;;;;;4.13;2.45;;;;;;;;;;5053623;28;20021;-73
2023/08/10 02:57:06;;;;;;;4.30;2.20;;;;;;;;;;5053325;28;20032;-73
2023/08/10 02:59:32;;;;;;;6.93;2.58;;;;;;;;;;5053523;28;20033;-73
2023/08/10 03:01:58;;;;;;;3.42;2.00;;;;;;;;;;5053607;28;20044;-73
2023/08/10 03:04:24;;;;;;;4.28;2.15;;;;;;;;;;5053271;28;20021;-73
2023/08/10 03:06:50;;;;;;;3.75;2.25;;;;;;;;;;5053839;28;20025;-73
2023/08/10 03:09:16;;;;;;;2.85;2.00;;;;;;;;;;5053425;28;20029;-73
2023/08/10 03:11:42;;;;;;;2.97;1.77;;;;;;;;;;5053291;28;20493;-73
2023/08/10 03:14:08;;;;;;;4.88;2.00;;;;;;;;;;5053402;28;20111;-73
2023/08/10 03:16:34;;;;;;;5.55;1.88;;;;;;;;;;5053395;28;20155;-73
2023/08/10 03:19:01;;;;;;;3.78;1.67;;;;;;;;;;5053463;28;20021;-73
2023/08/10 03:21:27;;;;;;;4.63;2.45;;;;;;;;;;5053188;28;20040;-73
2023/08/10 03:23:53;;;;;;;1.73;1.50;;;;;;;;;;5053212;28;20032;-73
2023/08/10 03:26:19;;;;;;;4.30;1.67;;;;;;;;;;5051827;28;20053;-73
2023/08/10 03:28:49;;;;;;;4.38;1.63;;;;;;;;;;5053172;28;20028;-73
2023/08/10 03:31:15;;;;;;;2.85;2.00;;;;;;;;;;5052980;28;20064;-73
2023/08/10 03:33:41;;;;;;;3.80;1.85;;;;;;;;;;5053202;28;20448;-73
2023/08/10 03:36:07;;;;;;;3.78;1.67;;;;;;;;;;5052901;28;20017;-73
2023/08/10 03:38:34;;;;;;;3.25;2.08;;;;;;;;;;5052876;28;20420;-73
2023/08/10 03:41:00;;;;;;;3.65;2.30;;;;;;;;;;5049585;28;20022;-73
2023/08/10 03:43:26;;;;;;;4.85;1.90;;;;;;;;;;5042769;28;20068;-73
2023/08/10 03:45:52;;;;;;;2.67;1.85;;;;;;;;;;5052853;28;20436;-73
2023/08/10 03:48:18;;;;;;;4.85;2.60;;;;;;;;;;5052740;28;20060;-73
2023/08/10 03:50:44;;;;;;;4.13;2.35;;;;;;;;;;5052638;28;20028;-73
2023/08/10 03:53:10;;;;;;;4.15;2.05;;;;;;;;;;5052882;28;20112;-73
2023/08/10 03:55:36;;;;;;;4.45;2.20;;;;;;;;;;5052875;28;20554;-73
2023/08/10 03:58:02;;;;;;;3.90;2.25;;;;;;;;;;5052617;28;20027;-73
2023/08/10 04:00:28;;;;;;;2.67;2.08;;;;;;;;;;5035506;28;20162;-73
2023/08/10 04:02:54;;;;;;;2.85;2.28;;;;;;;;;;5032613;28;20113;-73
2023/08/10 04:05:21;;;;;;;3.90;2.00;;;;;;;;;;5032567;28;20028;-73
2023/08/10 04:07:47;;;;;;;5.68;2.50;;;;;;;;;;5042817;28;20067;-73
2023/08/10 04:10:14;;;;;;;6.28;2.65;;;;;;;;;;5052616;28;20033;-74
2023/08/10 04:12:41;;;;;;;3.90;2.38;;;;;;;;;;5052648;28;20108;-73
2023/08/10 04:15:07;;;;;;;7.78;2.50;;;;;;;;;;5051807;28;20028;-73
2023/08/10 04:17:33;;;;;;;6.15;2.95;;;;;;;;;;5052233;28;20131;-73
2023/08/10 04:19:59;;;;;;;3.70;2.75;;;;;;;;;;5052013;28;20105;-73
2023/08/10 04:22:25;;;;;;;4.78;2.72;;;;;;;;;;5052078;28;20028;-73
2023/08/10 04:24:51;;;;;;;5.57;2.65;;;;;;;;;;5050631;28;20053;-73
2023/08/10 04:27:20;;;;;;;3.13;2.65;;;;;;;;;;5052607;28;20360;-73
2023/08/10 04:29:46;;;;;;;4.13;2.97;;;;;;;;;;5052286;28;20527;-73
2023/08/10 04:32:13;;;;;;;7.15;3.30;;;;;;;;;;5052119;28;20021;-73
2023/08/10 04:34:39;;;;;;;5.60;3.00;;;;;;;;;;5052123;28;20384;-73
2023/08/10 04:37:05;;;;;;;4.78;2.90;;;;;;;;;;5052138;28;20430;-73
2023/08/10 04:39:32;;;;;;;4.30;2.83;;;;;;;;;;5052005;28;20464;-73
2023/08/10 04:41:58;;;;;;;7.00;3.38;;;;;;;;;;5052221;28;20032;-73
2023/08/10 04:44:24;;;;;;;7.88;3.00;;;;;;;;;;5052169;28;20038;-73
2023/08/10 04:46:50;;;;;;;3.00;2.60;;;;;;;;;;5051970;28;20032;-73
2023/08/10 04:49:16;;;;;;;5.50;2.63;;;;;;;;;;5051970;28;20025;-73
2023/08/10 04:51:42;;;;;;;7.32;3.00;;;;;;;;;;5051825;28;20052;-73
2023/08/10 04:54:08;;;;;;;3.22;2.65;;;;;;;;;;5051812;28;20082;-73
2023/08/10 04:56:35;;;;;;;4.53;3.10;;;;;;;;;;5052072;28;20087;-73
2023/08/10 04:59:02;;;;;;;3.13;2.58;;;;;;;;;;5051883;28;20017;-73
2023/08/10 05:01:28;;;;;;;5.78;2.88;;;;;;;;;;5051686;28;20120;-73
2023/08/10 05:03:54;;;;;;;4.97;3.20;;;;;;;;;;5051855;28;20029;-73
2023/08/10 05:06:20;;;;;;;6.85;3.10;;;;;;;;;;5051786;28;20071;-73
2023/08/10 05:08:46;;;;;;;4.72;3.30;;;;;;;;;;5051721;28;20415;-73
2023/08/10 05:11:13;;;;;;;5.22;3.50;;;;;;;;;;5051966;28;20112;-73
2023/08/10 05:13:39;;;;;;;6.57;3.22;;;;;;;;;;5052057;28;20032;-73
2023/08/10 05:16:05;;;;;;;4.57;3.08;;;;;;;;;;5052095;28;20047;-73
2023/08/10 05:18:31;;;;;;;5.80;3.15;;;;;;;;;;5051892;28;20044;-73
2023/08/10 05:21:00;;;;;;;5.85;3.25;;;;;;;;;;5051584;28;20079;-73
2023/08/10 05:23:26;;;;;;;6.00;3.05;;;;;;;;;;5051604;28;20033;-73
2023/08/10 05:25:53;;;;;;;5.40;2.80;;;;;;;;;;5051034;28;20053;-73
2023/08/10 05:28:18;;;;;;;5.07;3.17;;;;;;;;;;5055432;28;20029;-73
2023/08/10 05:30:44;;;;;;;3.10;2.80;;;;;;;;;;5055419;28;20090;-73
2023/08/10 05:33:11;;;;;;;5.35;3.15;;;;;;;;;;5055342;28;20025;-73
2023/08/10 05:35:37;;;;;;;7.85;3.00;;;;;;;;;;5055477;28;20454;-73
2023/08/10 05:38:03;;;;;;;5.05;3.03;;;;;;;;;;5055154;28;20025;-73
2023/08/10 05:40:29;;;;;;;7.50;4.68;;;;;;;;;;5055065;28;20061;-73
2023/08/10 05:42:56;;;;;;;6.68;3.05;;;;;;;;;;5055322;28;20028;-73
2023/08/10 05:45:22;;;;;;;5.25;2.70;;;;;;;;;;5053729;28;20055;-74
2023/08/10 05:47:50;;;;;;;3.00;2.70;;;;;;;;;;5055036;28;20017;-73
2023/08/10 05:50:16;;;;;;;5.75;2.22;;;;;;;;;;5054934;28;20033;-73
2023/08/10 05:52:43;;;;;;;2.72;2.10;;;;;;;;;;5054859;28;20068;-74
2023/08/10 05:55:10;;;;;;;4.13;2.08;;;;;;;;;;5054814;28;20779;-74
2023/08/10 05:57:36;;;;;;;3.22;1.83;;;;;;;;;;5054608;28;20021;-73
2023/08/10 06:00:02;;;;;;;4.68;1.83;;;;;;;;;;5054518;28;20033;-73
2023/08/10 06:02:28;;;;;;;4.78;1.70;;;;;;;;;;5054810;28;20040;-73
2023/08/10 06:04:54;;;;;;;3.35;1.90;;;;;;;;;;5054710;28;20025;-74
2023/08/10 06:07:20;;;;;;;4.28;1.75;;;;;;;;;;5054988;28;20029;-74
2023/08/10 06:09:46;;;;;;;2.85;1.80;;;;;;;;;;5054690;28;20035;-73
2023/08/10 06:12:12;;;;;;;3.15;1.73;;;;;;;;;;5054868;28;20459;-74
2023/08/10 06:14:38;;;;;;;4.15;2.22;;;;;;;;;;5054508;28;20074;-73
2023/08/10 06:17:05;;;;;;;2.63;1.75;;;;;;;;;;5054471;28;20040;-73
2023/08/10 06:19:31;;;;;;;5.82;1.92;;;;;;;;;;5054330;28;20455;-73
2023/08/10 06:21:57;;;;;;;4.13;1.67;;;;;;;;;;5054329;28;20487;-74
2023/08/10 06:24:23;;;;;;;5.32;1.55;;;;;;;;;;5054437;28;20053;-74
2023/08/10 06:26:50;;;;;;;6.10;1.42;;;;;;;;;;5054082;28;20037;-74
2023/08/10 06:29:16;;;;;;;2.97;1.35;;;;;;;;;;5054503;28;20364;-74
2023/08/10 06:31:42;;;;;;;2.75;1.45;;;;;;;;;;5054197;28;20063;-74
2023/08/10 06:34:09;;;;;;;2.72;1.30;;;;;;;;;;5054152;28;20025;-74
2023/08/10 06:36:35;;;;;;;4.40;1.90;;;;;;;;;;5054382;28;20024;-74
2023/08/10 06:39:02;;;;;;;3.13;1.40;;;;;;;;;;5053404;28;20422;-73
2023/08/10 06:41:29;;;;;;;3.90;1.45;;;;;;;;;;5054283;28;20274;-74
2023/08/10 06:43:55;;;;;;;2.80;1.05;;;;;;;;;;5054587;28;20035;-74
2023/08/10 06:46:21;;;;;;;4.38;1.38;;;;;;;;;;5053880;28;20111;-74
2023/08/10 06:48:47;;;;;;;3.45;1.20;;;;;;;;;;5053797;28;20020;-74
2023/08/10 06:51:13;;;;;;;4.88;1.67;;;;;;;;;;5054171;28;20429;-74
2023/08/10 06:53:39;;;;;;;5.72;1.27;;;;;;;;;;5053658;28;20384;-74
2023/08/10 06:56:05;;;;;;;3.45;1.50;;;;;;;;;;5053794;28;20029;-74
2023/08/10 06:58:36;;;;;;;5.30;1.48;;;;;;;;;;5054215;28;20025;-74
2023/08/10 07:01:02;;;;;;;4.55;1.80;;;;;;;;;;5053586;28;20025;-74
2023/08/10 07:03:28;;;;;;;4.00;1.70;;;;;;;;;;5053542;28;20017;-74
2023/08/10 07:05:55;;;;;;;2.95;1.60;;;;;;;;;;5053825;28;20040;-74
2023/08/10 07:08:22;;;;;;;4.30;1.50;;;;;;;;;;5053718;28;20021;-74
2023/08/10 07:10:48;;;;;;;4.07;1.60;;;;;;;;;;5053432;28;20029;-74
2023/08/10 07:13:14;;;;;;;6.18;1.92;;;;;;;;;;5053368;28;20025;-74
2023/08/10 07:15:40;;;;;;;3.00;1.60;;;;;;;;;;5053321;28;20078;-74
2023/08/10 07:18:06;;;;;;;5.15;1.98;;;;;;;;;;5053211;28;20029;-74
2023/08/10 07:20:33;;;;;;;2.53;1.35;;;;;;;;;;5051902;28;20029;-74
2023/08/10 07:22:59;;;;;;;3.08;1.42;;;;;;;;;;5053365;28;20036;-74
2023/08/10 07:25:26;;;;;;;6.28;1.70;;;;;;;;;;5051784;28;20057;-74
2023/08/10 07:27:52;;;;;;;3.30;1.65;;;;;;;;;;5053283;28;20104;-74
2023/08/10 07:30:19;;;;;;;4.03;1.40;;;;;;;;;;5053072;28;20125;-74
2023/08/10 07:32:45;;;;;;;5.05;1.60;;;;;;;;;;5053123;28;20040;-74
2023/08/10 07:35:11;;;;;;;4.43;2.28;;;;;;;;;;5053004;28;20032;-74
2023/08/10 07:37:40;;;;;;;3.63;1.70;;;;;;;;;;5052913;28;20124;-74
2023/08/10 07:40:06;;;;;;;4.65;1.83;;;;;;;;;;5053139;28;20025;-74
2023/08/10 07:42:32;;;;;;;3.33;1.60;;;;;;;;;;5052855;28;20039;-74
2023/08/10 07:44:58;;;;;;;2.88;1.73;;;;;;;;;;5052813;28;20107;-74
2023/08/10 07:47:24;;;;;;;4.03;1.85;;;;;;;;;;5052776;28;20029;-74
2023/08/10 07:49:50;;;;;;;4.57;1.60;;;;;;;;;;5051909;28;20021;-74
2023/08/10 07:52:16;;;;;;;5.57;1.70;;;;;;;;;;5052553;28;20027;-74
2023/08/10 07:54:42;;;;;;;4.22;1.35;;;;;;;;;;5052726;28;20075;-74
2023/08/10 07:57:08;;;;;;;4.38;1.10;;;;;;;;;;5052584;28;20591;-74
2023/08/10 07:59:34;;;;;;;2.38;1.30;;;;;;;;;;5052809;28;20113;-74
2023/08/10 08:02:00;;;;;;;1.42;1.02;;;;;;;;;;5052602;28;20068;-74
2023/08/10 08:04:26;;;;;;;3.95;1.17;;;;;;;;;;5052517;28;20585;-74
2023/08/10 08:06:52;;;;;;;3.85;1.10;;;;;;;;;;5052393;28;20029;-74
2023/08/10 08:09:18;;;;;;;2.38;1.13;;;;;;;;;;5052420;28;20395;-74
2023/08/10 08:11:44;;;;;;;4.15;0.95;;;;;;;;;;5052125;28;20036;-74
2023/08/10 08:14:10;;;;;;;2.60;1.08;;;;;;;;;;5052547;28;20076;-74
2023/08/10 08:16:36;;;;;;;2.42;0.80;;;;;;;;;;5052297;28;20425;-74
2023/08/10 08:19:02;;;;;;;4.00;1.10;;;;;;;;;;5052340;28;20102;-74
2023/08/10 08:21:29;;;;;;;5.35;1.40;;;;;;;;;;5052595;28;20029;-74
2023/08/10 08:23:56;;;;;;;3.28;1.30;;;;;;;;;;5052262;28;20029;-74
2023/08/10 08:26:28;;;;;;;1.20;0.90;;;;;;;;;;5051766;28;20041;-74
2023/08/10 08:28:54;;;;;;;4.55;1.30;;;;;;;;;;5052217;28;20024;-74
2023/08/10 08:31:21;;;;;;;4.95;1.00;;;;;;;;;;5052110;28;20383;-74
2023/08/10 08:33:47;;;;;;;2.55;1.10;;;;;;;;;;5052167;28;20024;-74
2023/08/10 08:36:13;;;;;;;3.15;1.10;;;;;;;;;;5052441;28;20025;-74
2023/08/10 08:38:39;;;;;;;2.55;0.88;;;;;;;;;;5052304;28;20029;-74
2023/08/10 08:41:09;;;;;;;1.52;1.00;;;;;;;;;;5052000;28;20594;-74
2023/08/10 08:43:36;;;;;;;4.80;0.80;;;;;;;;;;5052108;28;20056;-74
2023/08/10 08:46:03;;;;;;;5.45;0.95;;;;;;;;;;5052000;28;20471;-74
2023/08/10 08:48:29;;;;;;;1.73;1.05;;;;;;;;;;5052069;28;20504;-74
2023/08/10 08:50:55;;;;;;;1.60;0.77;;;;;;;;;;5052313;28;20104;-74
2023/08/10 08:53:22;;;;;;;2.60;0.93;;;;;;;;;;5051999;28;20024;-74
2023/08/10 08:55:48;;;;;;;4.07;1.23;;;;;;;;;;5051848;28;20013;-74
2023/08/10 08:58:15;;;;;;;2.95;1.05;;;;;;;;;;5052368;28;20021;-74
2023/08/10 09:00:41;;;;;;;1.85;1.02;;;;;;;;;;5051728;28;20043;-74
2023/08/10 09:03:07;;;;;;;3.60;0.95;;;;;;;;;;5055786;28;20543;-74
2023/08/10 09:05:33;;;;;;;4.95;1.10;;;;;;;;;;5042521;28;20024;-74
2023/08/10 09:07:59;;;;;;;3.38;1.00;;;;;;;;;;5056005;28;20033;-74
2023/08/10 09:10:26;;;;;;;2.38;0.80;;;;;;;;;;5055811;28;20698;-74
2023/08/10 09:12:52;;;;;;;2.50;0.90;;;;;;;;;;5055696;28;20021;-74
2023/08/10 09:15:22;;;;;;;3.58;1.00;;;;;;;;;;5055651;28;20029;-74
2023/08/10 09:17:48;;;;;;;1.48;0.73;;;;;;;;;;5055683;28;20025;-74
2023/08/10 09:20:18;;;;;;;2.22;0.90;;;;;;;;;;5055740;28;20036;-74
2023/08/10 09:22:44;;;;;;;2.38;1.02;;;;;;;;;;5055535;28;20376;-74
2023/08/10 09:25:10;;;;;;;3.40;1.17;;;;;;;;;;5054406;28;20503;-74
2023/08/10 09:27:37;;;;;;;4.25;1.20;;;;;;;;;;5055478;28;20151;-74
2023/08/10 09:30:07;;;;;;;2.95;1.10;;;;;;;;;;5055914;28;20047;-74
2023/08/10 09:32:34;;;;;;;2.08;1.20;;;;;;;;;;5054046;28;20033;-74
2023/08/10 09:35:00;;;;;;;2.72;1.13;;;;;;;;;;5055319;28;20047;-74
2023/08/10 09:37:26;;;;;;;3.47;1.27;;;;;;;;;;5055478;28;20031;-74
2023/08/10 09:39:56;;;;;;;1.77;1.40;;;;;;;;;;5055156;28;20129;-74
2023/08/10 09:42:22;;;;;;;2.13;1.10;;;;;;;;;;5055133;28;20037;-74
2023/08/10 09:44:50;;;;;;;1.95;1.50;;;;;;;;;;5055174;28;20032;-74
2023/08/10 09:47:16;;;;;;;5.80;1.50;;;;;;;;;;5054908;28;20495;-74
2023/08/10 09:49:56;;;;;;;3.92;1.55;;;;;;;;;;5055005;28;20032;-74
2023/08/10 09:52:25;;;;;;;4.22;1.98;;;;;;;;;;5054992;28;20451;-74
2023/08/10 09:54:52;;;;;;;4.30;2.00;;;;;;;;;;5054962;28;20017;-74
2023/08/10 09:57:19;;;;;;;5.22;2.60;;;;;;;;;;5054936;28;20087;-74
2023/08/10 09:59:45;;;;;;;4.00;2.20;;;;;;;;;;5054836;28;20018;-74
2023/08/10 10:02:12;;;;;;;5.18;2.50;;;;;;;;;;5054820;28;20033;-74
2023/08/10 10:04:42;;;;;;;4.13;2.38;;;;;;;;;;5054762;28;20029;-74
2023/08/10 10:07:08;;;;;;;;;;;;;;;;;;5055230;28;20107;-74
2023/08/10 10:09:37;;;;;;;4.05;2.92;;;;;;;;;;5054577;28;20003;-74
2023/08/10 10:12:05;;;;;;;6.63;2.85;;;;;;;;;;5054700;28;20029;-74
2023/08/10 10:14:32;;;;;;;4.53;3.03;;;;;;;;;;5053812;28;20094;-74
2023/08/10 10:16:59;;;;;;;3.88;2.80;;;;;;;;;;5054483;28;20036;-74
2023/08/10 10:19:25;;;;;;;4.95;3.03;;;;;;;;;;5054396;28;20021;-74
2023/08/10 10:21:51;;;;;;;2.95;2.53;;;;;;;;;;5054348;28;20057;-74
2023/08/10 10:24:21;;;;;;;6.55;2.80;;;;;;;;;;5054256;28;20033;-74
2023/08/10 10:27:08;;;;;;;4.70;2.60;;;;;;;;;;5040716;28;20123;-74
2023/08/10 10:29:46;;;;;;;5.40;2.30;;;;;;;;;;5054443;28;20072;-74
2023/08/10 10:32:15;;;;;;;5.93;2.40;;;;;;;;;;5054521;28;20150;-74
2023/08/10 10:34:42;;;;;;;3.80;2.38;;;;;;;;;;5054170;28;20014;-74
2023/08/10 10:37:11;;;;;;;4.13;2.42;;;;;;;;;;5054186;28;20039;-74
2023/08/10 10:39:38;;;;;;;3.38;2.00;;;;;;;;;;5052671;28;20036;-74
2023/08/10 10:42:05;;;;;;;7.05;2.25;;;;;;;;;;5053925;28;20043;-74
2023/08/10 10:44:49;;;;;;;4.57;1.98;;;;;;;;;;5053951;28;20029;-74
2023/08/10 10:47:17;;;;;;;2.80;2.10;;;;;;;;;;5053884;28;20025;-74
2023/08/10 10:49:53;;;;;;;2.88;1.65;;;;;;;;;;5053892;28;20556;-74
2023/08/10 10:52:36;;;;;;;3.25;1.95;;;;;;;;;;5038073;28;20075;-74
2023/08/10 10:55:03;;;;;;;2.92;1.92;;;;;;;;;;5034222;28;20036;-74
2023/08/10 10:57:31;;;;;;;3.83;2.15;;;;;;;;;;5052918;28;20095;-74
2023/08/10 10:59:58;;;;;;;3.90;2.30;;;;;;;;;;5053826;28;20027;-74
2023/08/10 11:02:24;;;;;;;4.78;2.17;;;;;;;;;;5053733;28;20472;-74
2023/08/10 11:04:52;;;;;;;4.20;2.17;;;;;;;;;;5053646;28;20060;-74
2023/08/10 11:07:18;;;;;;;3.83;1.92;;;;;;;;;;5053496;28;20025;-74
2023/08/10 11:09:44;;;;;;;2.95;2.10;;;;;;;;;;5053389;28;20029;-74
2023/08/10 11:12:11;;;;;;;3.53;2.08;;;;;;;;;;5053771;28;20021;-74
2023/08/10 11:14:39;;;;;;;3.95;2.35;;;;;;;;;;5053376;28;20444;-74
2023/08/10 11:17:05;;;;;;;3.67;2.38;;;;;;;;;;5053395;28;20483;-74
2023/08/10 11:19:33;;;;;;;3.40;2.40;;;;;;;;;;5053203;28;20055;-74
2023/08/10 11:21:59;;;;;;;4.13;2.72;;;;;;;;;;5053522;28;20037;-74
2023/08/10 11:24:28;;;;;;;5.13;3.35;;;;;;;;;;5053006;28;20129;-74
2023/08/10 11:26:54;;;;;;;;;;;;;;;;;;5052365;28;20052;-74
2023/08/10 11:29:28;;;;;;;4.45;2.60;;;;;;;;;;5053045;28;19908;-74
2023/08/10 11:31:54;;;;;;;7.30;3.10;;;;;;;;;;5053022;28;20078;-74
2023/08/10 11:34:24;;;;;;;8.23;3.20;;;;;;;;;;5052885;28;20028;-74
2023/08/10 11:36:50;;;;;;;4.95;3.40;;;;;;;;;;5052995;28;20112;-74
2023/08/10 11:39:16;;;;;;;5.13;3.10;;;;;;;;;;5052813;28;20017;-74
2023/08/10 11:41:45;;;;;;;8.18;3.70;;;;;;;;;;5053027;28;20061;-74
2023/08/10 11:44:21;;;;;;;4.18;3.30;;;;;;;;;;5051506;28;20096;-74
2023/08/10 11:46:49;;;;;;;8.23;4.18;;;;;;;;;;5052994;28;20128;-74
2023/08/10 11:49:15;;;;;;;6.47;3.60;;;;;;;;;;5052974;28;20571;-74
2023/08/10 11:51:41;;;;;;;7.47;4.82;;;;;;;;;;5052706;28;20487;-74
2023/08/10 11:54:11;;;;;;;6.07;4.10;;;;;;;;;;5052750;28;20487;-74
2023/08/10 11:56:47;;;;;;;7.60;4.72;;;;;;;;;;5052713;28;20029;-74
2023/08/10 11:59:14;;;;;;;7.55;4.13;;;;;;;;;;5052608;28;20061;-74
2023/08/10 12:01:53;;;;;;;6.95;4.50;;;;;;;;;;5052737;28;20055;-74
2023/08/10 12:04:19;;;;;;;8.20;4.88;;;;;;;;;;5052612;28;20126;-74
2023/08/10 12:06:45;;;;;;;8.75;4.57;;;;;;;;;;5052343;28;20039;-74
2023/08/10 12:09:12;;;;;;;7.03;4.88;;;;;;;;;;5052751;28;20049;-74
2023/08/10 12:11:38;;;;;;;9.30;5.18;;;;;;;;;;5050367;28;20408;-74
2023/08/10 12:14:06;;;;;;;8.27;4.57;;;;;;;;;;5032583;28;20025;-74
2023/08/10 12:16:32;;;;;;;6.05;4.43;;;;;;;;;;5034748;28;20025;-74
2023/08/10 12:18:58;;;;;;;7.32;4.43;;;;;;;;;;5052332;28;20479;-74
2023/08/10 12:21:24;;;;;;;9.63;4.72;;;;;;;;;;5052184;28;20033;-74
2023/08/10 12:23:50;;;;;;;7.72;4.90;;;;;;;;;;5052167;28;20036;-74
2023/08/10 12:26:16;;;;;;;6.90;4.47;;;;;;;;;;5051885;28;20407;-74
2023/08/10 12:28:43;;;;;;;5.30;4.20;;;;;;;;;;5052134;28;20061;-74
2023/08/10 12:31:09;;;;;;;9.38;4.72;;;;;;;;;;5052048;28;20079;-74
2023/08/10 12:33:35;;;;;;;7.55;4.57;;;;;;;;;;5052151;28;20575;-74
2023/08/10 12:36:02;;;;;;;6.43;4.93;;;;;;;;;;5051568;28;20029;-74
2023/08/10 12:38:28;;;;;;;6.13;4.82;;;;;;;;;;5052007;28;20375;-74
2023/08/10 12:40:55;;;;;;;8.75;5.50;;;;;;;;;;5038678;28;20041;-74
2023/08/10 12:43:21;;;;;;;7.50;5.40;;;;;;;;;;5052023;28;20032;-74
2023/08/10 12:45:47;;;;;;;8.25;5.90;;;;;;;;;;5052453;28;20472;-74
2023/08/10 12:48:13;;;;;;;10.35;4.82;;;;;;;;;;5051967;28;20024;-74
2023/08/10 12:50:39;;;;;;;6.93;4.47;;;;;;;;;;5052308;28;20033;-74
2023/08/10 12:53:05;;;;;;;6.70;5.90;;;;;;;;;;5052000;28;20375;-74
2023/08/10 12:55:32;;;;;;;8.68;5.60;;;;;;;;;;5052040;28;20380;-74
2023/08/10 12:57:58;;;;;;;6.72;4.75;;;;;;;;;;5051894;28;20505;-74
2023/08/10 13:00:25;;;;;;;5.95;4.80;;;;;;;;;;5051817;28;20108;-74
2023/08/10 13:02:51;;;;;;;6.82;4.90;;;;;;;;;;5051866;28;20025;-74
2023/08/10 13:05:17;;;;;;;6.97;4.78;;;;;;;;;;5051852;28;20440;-74
2023/08/10 13:07:44;;;;;;;7.00;4.25;;;;;;;;;;5051815;28;20029;-74
2023/08/10 13:10:11;;;;;;;7.13;4.20;;;;;;;;;;5051843;28;20025;-74
2023/08/10 13:12:37;;;;;;;6.50;4.75;;;;;;;;;;5050571;28;20162;-74
2023/08/10 13:15:05;;;;;;;6.65;5.10;;;;;;;;;;5051903;28;20029;-74
2023/08/10 13:17:31;;;;;;;6.38;5.07;;;;;;;;;;5051985;28;20342;-74
2023/08/10 13:20:00;;;;;;;6.07;4.47;;;;;;;;;;5051675;28;20032;-74
2023/08/10 13:22:26;;;;;;;;;;;;;;;;;;5052112;28;20022;-74
2023/08/10 13:24:52;;;;;;;7.13;5.18;;;;;;;;;;5051616;28;19912;-74
2023/08/10 13:27:19;;;;;;;7.85;4.75;;;;;;;;;;5051436;28;20115;-74
2023/08/10 13:29:45;;;;;;;7.00;4.10;;;;;;;;;;5051540;28;20029;-74
2023/08/10 13:32:13;;;;;;;7.10;5.13;;;;;;;;;;5051851;28;20151;-74
2023/08/10 13:34:39;;;;;;;7.05;4.88;;;;;;;;;;5051724;28;20119;-74
2023/08/10 13:37:05;;;;;;;7.32;4.30;;;;;;;;;;5051835;28;20116;-74
2023/08/10 13:39:32;;;;;;;5.63;4.07;;;;;;;;;;5051458;28;20099;-74
2023/08/10 13:41:58;;;;;;;5.88;3.92;;;;;;;;;;5051709;28;20111;-74
2023/08/10 13:44:24;;;;;;;6.13;4.40;;;;;;;;;;5051806;28;20403;-74
2023/08/10 13:46:50;;;;;;;6.32;4.30;;;;;;;;;;5051410;28;20037;-74
2023/08/10 13:49:16;;;;;;;4.93;4.20;;;;;;;;;;5053748;28;20079;-74
2023/08/10 13:51:44;;;;;;;5.43;3.88;;;;;;;;;;5055219;28;20519;-74
2023/08/10 13:54:10;;;;;;;6.15;4.00;;;;;;;;;;5055208;28;20134;-74
2023/08/10 13:56:55;;;;;;;5.30;3.88;;;;;;;;;;5055156;28;20055;-74
2023/08/10 13:59:21;;;;;;;5.80;3.63;;;;;;;;;;5034780;28;20026;-74
2023/08/10 14:01:47;;;;;;;6.25;3.85;;;;;;;;;;5036016;28;20029;-74
2023/08/10 14:04:13;;;;;;;4.55;3.83;;;;;;;;;;5054768;28;20075;-74
2023/08/10 14:06:41;;;;;;;5.75;4.15;;;;;;;;;;5054727;28;20025;-74
2023/08/10 14:09:07;;;;;;;5.40;4.00;;;;;;;;;;5054678;28;20132;-74
2023/08/10 14:11:34;;;;;;;6.90;4.65;;;;;;;;;;5054782;28;20032;-74
2023/08/10 14:14:00;;;;;;;6.68;4.53;;;;;;;;;;5054634;28;20029;-74
2023/08/10 14:16:26;;;;;;;4.90;4.40;;;;;;;;;;5054422;28;20029;-74
2023/08/10 14:18:52;;;;;;;5.80;4.57;;;;;;;;;;5054562;28;20036;-74
2023/08/10 14:21:20;;;;;;;5.72;4.18;;;;;;;;;;5054249;28;20036;-74
2023/08/10 14:23:46;;;;;;;5.55;4.18;;;;;;;;;;5054686;28;20452;-74
2023/08/10 14:26:12;;;;;;;7.00;4.15;;;;;;;;;;5053141;28;20459;-74
2023/08/10 14:28:38;;;;;;;6.20;4.00;;;;;;;;;;5054576;28;20448;-74
2023/08/10 14:31:05;;;;;;;5.40;3.67;;;;;;;;;;5054107;28;20025;-74
2023/08/10 14:33:31;;;;;;;5.38;4.22;;;;;;;;;;5054063;28;20159;-74
2023/08/10 14:35:57;;;;;;;5.07;3.60;;;;;;;;;;5054159;28;20100;-74
2023/08/10 14:38:23;;;;;;;4.03;3.00;;;;;;;;;;5054130;28;20036;-74
2023/08/10 14:40:49;;;;;;;5.85;2.55;;;;;;;;;;5053776;28;20025;-74
2023/08/10 14:43:15;;;;;;;4.53;2.75;;;;;;;;;;5054151;28;20029;-74